Terminal Aerodrome Forecast
Issued by NWS

Home | Current Version | Previous Version | Text Only | Print | Product List | Glossary On
Versions: 1 2 3 4 5 6 7 8 9 10 11 12 13
867
FTUS45 KABQ 290520
TAFSAF
TAF
KSAF 290520Z 2906/3006 VRB05KT P6SM SCT150
     FM291100 01007KT P6SM SKC
     FM292000 22008KT P6SM VCTS SCT080CB
     FM292300 34010KT P6SM VCSH BKN100
     FM300100 13012KT P6SM SCT120=

USA.gov is the U.S. government's official web portal to all federal, state and local government web resources and services.